createdAt,value
2023-06-17T06:33:24.209Z,2.50
2023-06-17T06:36:49.588Z,2.60
2023-06-17T06:40:15.422Z,2.60
2023-06-17T06:43:41.064Z,2.70
2023-06-17T06:47:06.508Z,2.97
2023-06-17T06:50:31.911Z,2.58
2023-06-17T06:53:57.524Z,2.95
2023-06-17T06:57:22.859Z,2.75
2023-06-17T07:00:48.345Z,4.43
2023-06-17T07:04:13.948Z,2.65
2023-06-17T07:07:39.439Z,2.33
2023-06-17T07:11:05.020Z,2.65
2023-06-17T07:14:30.423Z,2.40
2023-06-17T09:14:32.972Z,2.72
2023-06-17T09:17:59.983Z,2.70
2023-06-17T09:21:26.176Z,3.53
2023-06-17T09:25:00.098Z,2.80
2023-06-17T09:28:26.222Z,3.35
2023-06-17T09:31:55.138Z,3.55
2023-06-17T09:35:21.036Z,3.63
2023-06-17T09:38:53.359Z,3.50
2023-06-17T09:42:19.081Z,2.95
2023-06-17T09:45:46.224Z,3.10
2023-06-17T09:56:06.369Z,3.03
2023-06-17T09:59:32.721Z,2.97
2023-06-17T10:02:58.251Z,3.10
2023-06-17T10:06:24.119Z,2.70
2023-06-17T10:09:49.813Z,3.00
2023-06-17T10:13:18.937Z,2.92
2023-06-17T10:16:46.577Z,2.85
2023-06-17T10:20:15.976Z,2.58
2023-06-17T10:23:42.632Z,2.70
2023-06-17T10:27:11.261Z,2.65
2023-06-17T10:30:44.038Z,2.38
2023-06-17T10:34:22.387Z,2.78
2023-06-17T10:37:48.968Z,3.08
2023-06-17T10:41:20.329Z,2.92
2023-06-17T10:44:46.328Z,2.67
2023-06-17T10:48:28.893Z,2.38
2023-06-17T10:52:04.167Z,2.80
2023-06-17T10:55:32.390Z,2.80
2023-06-17T10:58:58.015Z,3.40
2023-06-17T11:02:23.402Z,2.47
2023-06-17T11:05:51.782Z,2.90
2023-06-17T11:09:17.475Z,2.70
2023-06-17T11:12:45.810Z,2.70
2023-06-17T11:16:11.888Z,2.40
2023-06-17T11:19:37.997Z,2.75
2023-06-17T11:23:05.189Z,2.50
2023-06-17T11:26:31.110Z,2.63
2023-06-17T13:30:34.628Z,1.90
2023-06-17T13:34:01.006Z,1.75
2023-06-17T13:37:26.458Z,1.83
2023-06-17T13:40:51.830Z,2.00
2023-06-17T13:44:17.603Z,1.90
2023-06-17T13:47:43.329Z,2.72
2023-06-17T13:51:09.372Z,2.42
2023-06-17T13:54:34.926Z,2.22
2023-06-17T13:58:00.582Z,2.28
2023-06-17T14:01:26.112Z,2.20
2023-06-17T14:04:52.908Z,2.50
2023-06-17T14:08:18.452Z,2.30
2023-06-17T14:11:43.955Z,2.05
2023-06-17T14:15:11.448Z,2.08
2023-06-17T14:18:36.809Z,1.95
2023-06-17T14:22:06.145Z,2.38
2023-06-17T14:25:31.881Z,2.20
2023-06-17T14:28:57.226Z,2.03
2023-06-17T14:32:22.673Z,2.50
2023-06-17T14:35:48.754Z,2.47
2023-06-17T14:39:14.113Z,1.95
2023-06-17T14:42:40.177Z,2.17
2023-06-17T14:46:10.283Z,2.33
2023-06-17T14:49:36.084Z,2.70
2023-06-17T14:53:01.850Z,2.30
2023-06-17T14:56:29.225Z,2.22
2023-06-17T14:59:56.184Z,2.50
2023-06-17T15:03:24.792Z,2.40
2023-06-17T15:06:51.126Z,2.80
2023-06-17T15:10:22.738Z,2.80
2023-06-17T19:34:23.531Z,7.13
2023-06-17T19:37:48.962Z,6.35
2023-06-17T19:41:14.507Z,6.38
2023-06-17T19:44:43.903Z,7.00
2023-06-17T19:48:10.162Z,7.40
2023-06-17T19:51:35.595Z,7.38
2023-06-17T19:55:01.162Z,6.30
2023-06-17T19:58:26.571Z,6.20
2023-06-17T20:01:52.446Z,5.90
2023-06-17T20:05:19.830Z,5.20
2023-06-17T20:08:45.426Z,6.10
